createdAt,value
2023-03-26T00:01:39.859Z,96994.20
2023-03-26T00:04:10.003Z,96995.05
2023-03-26T00:06:39.245Z,96994.27
2023-03-26T00:09:09.499Z,96993.08
2023-03-26T00:11:36.843Z,96990.25
2023-03-26T00:14:04.905Z,96989.20
2023-03-26T00:16:31.952Z,96990.80
2023-03-26T00:19:01.416Z,96991.04
2023-03-26T00:21:30.328Z,96998.06
2023-03-26T00:24:26.294Z,96998.08
2023-03-26T00:27:02.287Z,97001.05
2023-03-26T00:29:32.765Z,97004.64
2023-03-26T00:31:59.772Z,97004.48
2023-03-26T00:34:26.980Z,97008.07
2023-03-26T00:36:54.337Z,97009.83
2023-03-26T00:39:23.483Z,97006.85
2023-03-26T00:41:53.804Z,97009.20
2023-03-26T00:44:21.105Z,97009.58
2023-03-26T00:46:48.928Z,97006.98
2023-03-26T00:49:15.891Z,96999.95
2023-03-26T00:51:42.965Z,96998.43
2023-03-26T00:54:11.348Z,97002.77
2023-03-26T00:56:38.675Z,97003.55
2023-03-26T00:59:05.805Z,97003.48
2023-03-26T01:01:33.158Z,96999.37
2023-03-26T01:04:49.966Z,96999.77
2023-03-26T01:07:21.322Z,96996.80
2023-03-26T01:09:51.263Z,96994.88
2023-03-26T01:12:21.800Z,96991.96
2023-03-26T01:14:56.553Z,96987.09
2023-03-26T01:17:34.562Z,96990.54
2023-03-26T01:20:22.673Z,96988.95
2023-03-26T01:22:55.861Z,96985.81
2023-03-26T01:25:28.599Z,96982.31
2023-03-26T01:27:56.164Z,96978.81
2023-03-26T01:30:56.915Z,96978.45
2023-03-26T01:33:36.864Z,96977.31
2023-03-26T01:36:32.736Z,96977.16
2023-03-26T01:39:20.958Z,96981.45
2023-03-26T01:41:57.997Z,96985.73
2023-03-26T01:44:39.072Z,96989.25
2023-03-26T01:47:09.587Z,96994.45
2023-03-26T01:49:36.859Z,96996.27
2023-03-26T01:52:12.595Z,96999.49
2023-03-26T01:54:40.911Z,97001.17
2023-03-26T01:57:33.431Z,97005.76
2023-03-26T02:00:17.646Z,97016.37
2023-03-26T02:03:25.731Z,97018.96
2023-03-26T02:06:16.011Z,97021.96
2023-03-26T02:09:00.360Z,97027.84
2023-03-26T02:11:35.296Z,97028.91
2023-03-26T02:14:05.651Z,97029.60
2023-03-26T02:16:32.866Z,97026.70
2023-03-26T02:18:59.951Z,97027.25
2023-03-26T02:21:27.966Z,97026.73
2023-03-26T02:24:06.059Z,97026.50
2023-03-26T02:26:37.214Z,97023.77
2023-03-26T02:29:07.677Z,97021.23
2023-03-26T02:31:36.350Z,97022.46
2023-03-26T02:34:06.700Z,97021.39
2023-03-26T02:36:36.022Z,97023.84
2023-03-26T02:39:04.788Z,97026.36
2023-03-26T02:41:34.967Z,97032.53
2023-03-26T02:44:08.039Z,97036.34
2023-03-26T02:46:53.816Z,97039.83
2023-03-26T02:49:59.383Z,97041.42
2023-03-26T02:52:49.407Z,97041.33
2023-03-26T02:55:16.506Z,97044.44
2023-03-26T02:57:45.132Z,97044.05
2023-03-26T03:00:21.444Z,97047.30
2023-03-26T03:03:04.030Z,97046.30
2023-03-26T03:05:32.538Z,97049.63
2023-03-26T03:08:23.649Z,97058.09
2023-03-26T03:11:26.038Z,97055.31
2023-03-26T03:13:53.922Z,97057.80
2023-03-26T03:16:27.237Z,97051.61
2023-03-26T03:18:57.571Z,97050.83
2023-03-26T03:21:28.290Z,97050.20
2023-03-26T03:24:00.002Z,97046.68
2023-03-26T03:26:41.803Z,97044.85
2023-03-26T03:29:24.791Z,97044.91
2023-03-26T03:31:52.205Z,97045.05
2023-03-26T03:34:42.289Z,97049.52
2023-03-26T03:37:09.407Z,97046.55
2023-03-26T03:39:44.185Z,97046.62
2023-03-26T03:42:12.461Z,97048.80
2023-03-26T03:44:39.749Z,97053.35
2023-03-26T03:47:23.116Z,97055.14
2023-03-26T03:49:50.706Z,97056.26
2023-03-26T03:52:18.066Z,97054.48
2023-03-26T03:54:46.003Z,97053.63
2023-03-26T03:57:34.217Z,97058.64
2023-03-26T04:00:07.620Z,97061.13
2023-03-26T04:02:42.549Z,97059.04
2023-03-26T04:05:11.446Z,97055.67
2023-03-26T04:07:43.536Z,97052.89
2023-03-26T04:10:46.799Z,97054.60
2023-03-26T04:13:17.602Z,97057.65
2023-03-26T04:16:08.867Z,97059.97
2023-03-26T04:18:37.088Z,97064.33
2023-03-26T04:21:12.016Z,97064.67
2023-03-26T04:23:47.604Z,97071.21
2023-03-26T04:26:49.538Z,97070.98
2023-03-26T04:29:27.349Z,97073.48
2023-03-26T04:32:08.422Z,97078.02
2023-03-26T04:34:35.898Z,97082.02
2023-03-26T04:37:26.346Z,97085.05
2023-03-26T04:40:20.047Z,97091.56
2023-03-26T04:43:21.766Z,97088.66
2023-03-26T04:46:11.008Z,97089.11
2023-03-26T04:48:45.176Z,97094.73
2023-03-26T04:51:17.955Z,97096.31
2023-03-26T04:53:57.845Z,97099.66
2023-03-26T04:56:43.008Z,97097.38
2023-03-26T04:59:36.552Z,97098.23
2023-03-26T05:02:09.149Z,97100.52
2023-03-26T05:04:50.618Z,97096.42
2023-03-26T05:07:23.613Z,97099.39
2023-03-26T05:09:53.628Z,97101.75
2023-03-26T05:12:34.824Z,97099.61
2023-03-26T05:15:10.963Z,97104.48
2023-03-26T05:17:58.565Z,97115.29
2023-03-26T05:20:30.663Z,97117.08
2023-03-26T05:22:58.046Z,97115.75
2023-03-26T05:25:39.401Z,97115.17
2023-03-26T05:28:13.260Z,97118.30
2023-03-26T05:31:01.309Z,97123.48
2023-03-26T05:33:30.866Z,97129.29
2023-03-26T05:36:30.456Z,97127.58
2023-03-26T05:39:26.238Z,97131.70
2023-03-26T05:42:16.245Z,97127.41
2023-03-26T05:44:58.252Z,97127.77
2023-03-26T05:47:27.557Z,97128.57
2023-03-26T05:49:54.997Z,97130.80
2023-03-26T05:52:22.261Z,97129.67
2023-03-26T05:55:14.123Z,97131.88
2023-03-26T05:58:03.251Z,97130.32
2023-03-26T06:01:19.376Z,97124.02
2023-03-26T06:04:13.209Z,97117.77
2023-03-26T06:06:44.344Z,97120.39
2023-03-26T06:09:12.868Z,97116.22
2023-03-26T06:11:41.290Z,97112.45
2023-03-26T06:14:08.666Z,97110.48
2023-03-26T06:16:38.984Z,97105.32
2023-03-26T06:19:38.300Z,97109.36
2023-03-26T06:22:13.306Z,97110.75
2023-03-26T06:25:18.478Z,97107.22
2023-03-26T06:27:54.386Z,97104.92
2023-03-26T06:30:40.349Z,97101.19
2023-03-26T06:33:24.968Z,97103.00
2023-03-26T06:35:52.630Z,97102.90
2023-03-26T06:38:19.927Z,97107.60
2023-03-26T06:40:47.186Z,97112.72
2023-03-26T06:43:36.420Z,97117.26
2023-03-26T06:46:16.481Z,97118.75
2023-03-26T06:49:02.432Z,97119.56
2023-03-26T06:52:24.363Z,97119.81
2023-03-26T06:55:06.087Z,97118.90
2023-03-26T06:58:03.761Z,97125.29
2023-03-26T07:00:54.052Z,97124.11
2023-03-26T07:03:40.012Z,97127.19
2023-03-26T07:06:39.167Z,97127.73
2023-03-26T07:09:25.792Z,97122.16
2023-03-26T07:12:28.129Z,97125.11
2023-03-26T07:15:17.115Z,97133.93
2023-03-26T07:18:06.474Z,97135.15
2023-03-26T07:20:36.127Z,97131.31
2023-03-26T07:23:04.463Z,97130.99
2023-03-26T07:26:22.633Z,97133.32
2023-03-26T07:29:35.201Z,97137.48
2023-03-26T07:32:49.473Z,97139.85
2023-03-26T07:35:38.191Z,97137.84
2023-03-26T07:38:50.396Z,97139.29
2023-03-26T07:41:40.679Z,97143.30
2023-03-26T07:44:41.036Z,97139.81
2023-03-26T07:47:42.058Z,97139.57
2023-03-26T07:50:38.866Z,97140.30
2023-03-26T07:53:28.399Z,97141.69
2023-03-26T07:56:18.456Z,97142.16
2023-03-26T07:59:16.266Z,97137.44
2023-03-26T08:02:17.562Z,97137.38
2023-03-26T08:05:09.833Z,97131.45
2023-03-26T08:08:14.463Z,97130.86
2023-03-26T08:11:29.484Z,97128.71
2023-03-26T08:14:13.853Z,97126.15
2023-03-26T08:17:01.889Z,97126.98
2023-03-26T08:19:40.284Z,97133.21
2023-03-26T08:22:25.743Z,97128.52
2023-03-26T08:24:56.701Z,97124.69
2023-03-26T08:27:41.047Z,97126.02
2023-03-26T08:30:07.992Z,97124.91
2023-03-26T08:32:35.403Z,97121.48
2023-03-26T08:35:03.883Z,97118.84
2023-03-26T08:37:31.124Z,97116.36
2023-03-26T08:39:58.162Z,97114.83
2023-03-26T08:43:00.905Z,97112.09
2023-03-26T08:45:44.038Z,97113.86
2023-03-26T08:48:29.359Z,97109.25
2023-03-26T08:51:14.793Z,97110.86
2023-03-26T08:54:02.870Z,97108.65
2023-03-26T08:56:53.300Z,97104.51
2023-03-26T08:59:48.755Z,97105.64
2023-03-26T09:02:33.500Z,97103.14
2023-03-26T09:05:43.375Z,97104.50
2023-03-26T09:08:32.405Z,97103.67
2023-03-26T09:11:45.366Z,97099.76
2023-03-26T09:14:30.144Z,97102.91
2023-03-26T09:17:24.221Z,97098.15
2023-03-26T09:20:19.479Z,97103.94
2023-03-26T09:23:11.977Z,97113.37
2023-03-26T09:26:03.574Z,97111.05
2023-03-26T09:29:10.664Z,97106.91
2023-03-26T09:32:05.031Z,97101.91
2023-03-26T09:34:57.893Z,97105.91
2023-03-26T09:37:57.447Z,97105.20
2023-03-26T09:40:46.063Z,97106.55
2023-03-26T09:43:36.174Z,97109.02
2023-03-26T09:46:09.959Z,97104.66
2023-03-26T09:49:22.359Z,97099.02
2023-03-26T09:52:08.368Z,97095.26
2023-03-26T09:54:48.106Z,97103.03
2023-03-26T09:57:57.788Z,97101.88
2023-03-26T10:00:46.696Z,97094.98
2023-03-26T10:03:38.270Z,97092.89
2023-03-26T10:06:34.601Z,97094.59
2023-03-26T10:09:20.527Z,97091.87
2023-03-26T10:12:23.703Z,97084.11
2023-03-26T10:15:16.601Z,97094.05
2023-03-26T10:18:00.280Z,97087.41
2023-03-26T10:20:56.954Z,97086.70
2023-03-26T10:23:47.724Z,97082.26
2023-03-26T10:27:09.006Z,97086.08
2023-03-26T10:29:51.489Z,97090.42
2023-03-26T10:32:58.730Z,97085.44
2023-03-26T10:35:51.949Z,97082.02
2023-03-26T10:38:40.396Z,97078.80
2023-03-26T10:41:18.004Z,97076.70
2023-03-26T10:44:11.262Z,97074.94
2023-03-26T10:46:52.455Z,97067.39
2023-03-26T10:49:49.574Z,97077.70
2023-03-26T10:52:49.891Z,97079.50
2023-03-26T10:55:31.390Z,97070.86
2023-03-26T10:58:24.529Z,97073.98
2023-03-26T11:01:06.285Z,97073.10
2023-03-26T11:03:51.591Z,97070.96
2023-03-26T11:06:42.566Z,97064.30
2023-03-26T11:09:37.394Z,97063.55
2023-03-26T11:12:26.339Z,97060.01
2023-03-26T11:15:15.160Z,97061.48
2023-03-26T11:18:26.862Z,97067.92
2023-03-26T11:21:19.834Z,97057.65
2023-03-26T11:24:05.131Z,97050.11
2023-03-26T11:26:56.860Z,97049.81
2023-03-26T11:29:56.952Z,97043.38
2023-03-26T11:32:34.173Z,97048.89
2023-03-26T11:35:18.343Z,97049.11
2023-03-26T11:38:32.461Z,97047.89
2023-03-26T11:41:03.468Z,97042.01
2023-03-26T11:44:00.362Z,97040.33
2023-03-26T11:46:33.892Z,97044.17
2023-03-26T11:49:15.531Z,97044.10
2023-03-26T11:51:46.876Z,97035.93
2023-03-26T11:54:15.914Z,97028.78
2023-03-26T11:57:05.914Z,97027.75
2023-03-26T11:59:57.241Z,97027.12
2023-03-26T12:02:37.200Z,97021.09
2023-03-26T12:05:26.881Z,97023.27
2023-03-26T12:07:59.796Z,97021.37
2023-03-26T12:10:40.067Z,97023.47
2023-03-26T12:13:43.046Z,97025.33
2023-03-26T12:16:38.349Z,97014.95
2023-03-26T12:19:21.941Z,97015.15
2023-03-26T12:21:51.626Z,97014.13
2023-03-26T12:25:09.129Z,97015.45
2023-03-26T12:28:02.848Z,97012.25
2023-03-26T12:30:44.743Z,97006.76
2023-03-26T12:33:39.016Z,97004.45
2023-03-26T12:36:19.446Z,97002.69
2023-03-26T12:38:46.487Z,97006.77
2023-03-26T12:43:19.840Z,97000.81
2023-03-26T12:44:54.131Z,96999.84
2023-03-26T12:48:00.460Z,96996.77
2023-03-26T12:50:15.884Z,96988.99
2023-03-26T12:53:05.647Z,96990.95
2023-03-26T12:55:36.241Z,96988.71
2023-03-26T12:58:23.647Z,96982.72
2023-03-26T13:01:22.767Z,96974.33
2023-03-26T13:04:11.149Z,96973.36
2023-03-26T13:07:00.681Z,96971.66
2023-03-26T13:09:44.405Z,96972.83
2023-03-26T13:12:17.568Z,96965.41
2023-03-26T13:14:55.817Z,96960.84
2023-03-26T13:17:31.914Z,96957.52
2023-03-26T13:20:01.962Z,96958.39
2023-03-26T13:23:18.206Z,96960.17
2023-03-26T13:26:24.296Z,96960.29
2023-03-26T13:29:20.075Z,96958.90
2023-03-26T13:32:23.172Z,96963.48
2023-03-26T13:35:18.501Z,96953.87
2023-03-26T13:37:54.558Z,96948.56
2023-03-26T13:40:35.841Z,96951.04
2023-03-26T13:43:20.640Z,96945.67
2023-03-26T13:46:23.619Z,96948.70
2023-03-26T13:48:57.796Z,96952.02
2023-03-26T13:51:27.027Z,96943.91
2023-03-26T13:54:04.791Z,96938.88
2023-03-26T13:56:47.280Z,96939.95
2023-03-26T13:59:14.085Z,96936.69
2023-03-26T14:02:05.709Z,96934.90
2023-03-26T14:04:47.078Z,96928.80
2023-03-26T14:07:20.441Z,96926.56
2023-03-26T14:09:57.334Z,96924.80
2023-03-26T14:12:51.774Z,96924.94
2023-03-26T14:15:22.634Z,96921.70
2023-03-26T14:17:52.914Z,96915.02
2023-03-26T14:20:58.883Z,96909.55
2023-03-26T14:23:56.764Z,96907.38
2023-03-26T14:26:48.611Z,96897.77
2023-03-26T14:29:29.692Z,96899.36
2023-03-26T14:32:24.529Z,96898.48
2023-03-26T14:35:04.343Z,96899.39
2023-03-26T14:38:14.392Z,96900.86
2023-03-26T14:41:10.006Z,96901.52
2023-03-26T14:44:10.583Z,96905.88
2023-03-26T14:46:49.772Z,96906.24
2023-03-26T14:49:22.863Z,96901.32
2023-03-26T14:52:20.102Z,96902.38
2023-03-26T14:54:52.276Z,96898.95
2023-03-26T14:57:46.902Z,96896.28
2023-03-26T15:01:03.899Z,96889.87
2023-03-26T15:04:05.692Z,96893.88
2023-03-26T15:06:50.807Z,96891.93
2023-03-26T15:09:45.755Z,96888.91
2023-03-26T15:12:15.779Z,96896.87
2023-03-26T15:15:16.226Z,96898.13
2023-03-26T15:18:05.991Z,96888.04
2023-03-26T15:20:55.788Z,96892.08
2023-03-26T15:24:19.602Z,96891.48
2023-03-26T15:27:11.667Z,96894.51
2023-03-26T15:30:20.373Z,96890.78
2023-03-26T15:33:19.611Z,96889.43
2023-03-26T15:36:14.359Z,96883.11
2023-03-26T15:38:42.120Z,96877.94
2023-03-26T15:41:45.940Z,96877.10
2023-03-26T15:48:38.161Z,96874.96
2023-03-26T15:51:21.718Z,96870.27
2023-03-26T15:54:07.906Z,96870.65
2023-03-26T15:56:48.605Z,96868.46
2023-03-26T15:59:41.386Z,96873.66
2023-03-26T16:02:38.521Z,96874.64
2023-03-26T16:05:36.731Z,96880.04
2023-03-26T16:08:38.716Z,96878.10
2023-03-26T16:11:12.951Z,96876.54
2023-03-26T16:14:02.512Z,96876.73
2023-03-26T16:17:38.080Z,96877.35
2023-03-26T16:22:03.529Z,96877.14
2023-03-26T16:28:08.994Z,96866.73
2023-03-26T16:30:45.789Z,96864.97
2023-03-26T16:52:36.930Z,96885.67
2023-03-26T17:19:30.052Z,96933.98
2023-03-26T18:02:00.724Z,96927.20
2023-03-26T18:04:39.176Z,96932.11
2023-03-26T18:22:11.706Z,96906.19
2023-03-26T18:26:01.920Z,96907.44
2023-03-26T18:28:34.505Z,96903.88
2023-03-26T18:32:30.686Z,96903.07
2023-03-26T19:13:19.866Z,96887.96
2023-03-26T19:16:43.123Z,96879.45
2023-03-26T20:22:41.024Z,96815.02
2023-03-26T20:26:27.439Z,96812.84
2023-03-26T20:38:39.120Z,96802.69
2023-03-26T21:04:47.318Z,96787.63
2023-03-26T21:07:23.099Z,96783.64
2023-03-26T21:13:05.245Z,96771.59
2023-03-26T21:15:33.284Z,96769.65
2023-03-26T21:18:00.626Z,96768.70
2023-03-26T21:20:28.286Z,96766.73
2023-03-26T21:23:15.801Z,96771.78
2023-03-26T21:26:01.166Z,96767.85
2023-03-26T21:28:41.992Z,96767.12
2023-03-26T21:31:17.948Z,96758.49
2023-03-26T21:33:46.077Z,96754.19
2023-03-26T21:36:14.671Z,96749.98
2023-03-26T21:38:43.115Z,96747.12
2023-03-26T21:42:04.889Z,96746.84
2023-03-26T21:44:36.501Z,96743.58
2023-03-26T21:47:03.959Z,96743.98
2023-03-26T21:49:34.634Z,96748.77
2023-03-26T21:52:02.312Z,96747.29
2023-03-26T21:54:31.650Z,96748.23
2023-03-26T21:58:00.853Z,96745.36
2023-03-26T22:01:02.320Z,96739.23
2023-03-26T22:03:37.328Z,96731.44
2023-03-26T22:06:17.126Z,96721.38
2023-03-26T22:08:44.405Z,96714.73
2023-03-26T22:11:12.510Z,96709.09
2023-03-26T22:13:39.674Z,96702.73
2023-03-26T22:16:08.909Z,96694.84
2023-03-26T22:18:36.340Z,96689.39
2023-03-26T22:21:04.064Z,96683.42
2023-03-26T22:23:35.536Z,96683.21
2023-03-26T22:26:04.600Z,96677.46
2023-03-26T22:28:31.720Z,96672.41
2023-03-26T22:30:59.156Z,96666.23
2023-03-26T22:33:26.492Z,96659.98
2023-03-26T22:35:55.595Z,96659.86
2023-03-26T22:38:23.380Z,96658.91
2023-03-26T22:40:56.595Z,96659.77
2023-03-26T22:43:23.980Z,96656.91
2023-03-26T22:45:53.071Z,96655.72
2023-03-26T22:48:22.898Z,96653.48
2023-03-26T22:51:07.568Z,96647.62
2023-03-26T22:53:35.563Z,96645.26
2023-03-26T22:56:03.606Z,96645.61
2023-03-26T22:58:32.450Z,96642.09
2023-03-26T23:01:17.335Z,96636.95
2023-03-26T23:03:46.113Z,96637.00
2023-03-26T23:06:13.663Z,96636.30
2023-03-26T23:08:41.513Z,96635.52
2023-03-26T23:11:16.416Z,96630.66
2023-03-26T23:13:52.662Z,96624.19
2023-03-26T23:16:20.943Z,96619.85
2023-03-26T23:18:48.035Z,96615.27
2023-03-26T23:21:17.702Z,96609.09
2023-03-26T23:23:46.419Z,96609.16
2023-03-26T23:26:14.404Z,96610.84
2023-03-26T23:28:47.046Z,96609.77
2023-03-26T23:31:17.085Z,96604.34
2023-03-26T23:33:46.959Z,96606.35
2023-03-26T23:36:17.348Z,96601.92
2023-03-26T23:38:48.664Z,96597.85
2023-03-26T23:41:20.776Z,96597.14
2023-03-26T23:43:58.766Z,96599.61
2023-03-26T23:46:34.107Z,96593.32
2023-03-26T23:49:04.432Z,96592.23
2023-03-26T23:51:32.487Z,96589.50
2023-03-26T23:54:00.883Z,96591.30
2023-03-26T23:56:29.212Z,96589.98
2023-03-26T23:58:56.187Z,96590.21
